Saint-Simon-De-Rimouski, Canada
Current Conditions -  °F | °C
As of 11:00 PM on Monday 20 Oct 2014 (Local Time) from CYYY Reporting Station
Few Clouds Few Clouds  
Wind Chill: 29°   Ceiling: Unl
Heat Index: 37°   Visibility: 30mi
Dew Point: 27°   Wind: 15mph
Humidity: 65%   Direction: 250°WSW
Pressure: 29.89"   Gusts: 21mph
Location:  48.2°N, 69.02°W
Report Text: CYYY 210300Z 25013G18KT 30SM FEW035 03/M03 A2989 RMK SC2 SLP124
Loading
Personal Weather Stations






























Interactive Weather Map
Tropical Storm Tracking
New forecast layout! Learn more

10-Day Weather Forecast

Advertisements
Track Severe Weather on mobile